Pagrindinis puslapis
METAR-TAF:

METAR-TAF

Oro uostai :

Boca Raton, Florida, Jungtinės Amerikos Valstijos

platuma: 26-22-43N, ilguma: 080-06-28W, Aukštis: 4 m

Dabartinis oras

Ataskaita buvo paskelbta 4 valandos ir 8 minutes, ne 03:47 UTC
Vėjas 11 kt iš Šiaurės/Šiaurės Vakarų
Temperatūra 20°C
Drėgmė 94%
Slėgis 1016 hPa
Matomumas: 14.5 km
Išsisklaidę debesys ne aukštis 1200 ft
Su prošvaistėmis ne aukštis 4000 ft

METAR: KBCT 270347Z 34011KT 9SM SCT012 BKN040 20/19 A3000 RMK LAST

Laikas: 02:55 (07:55 UTC)


TAF: trūkstamas

Orai ataskaitas ir orų prognozės (METAR, TAF).

turimą stotys yra geltonos ir raudonos taškus žemėlapyje.

Perkelti pele per norėdami pamatyti stoties vardą.

Tada spustelėkite, norėdami matyti oro stebėjimo ir prognozės.

Norėdami pakeisti žemėlapį: spustelėkite ant žalios mygtukų su juodo kryžiaus žemyn,; žalią mygtuką su brūkšneliu, jei norite nutolinti; arba žalių rodyklių gretimoms žemėlapius.


METAR-TAF: